createdAt,value
2018-06-25T00:01:34.073Z,95178.64
2018-06-25T00:04:00.734Z,95184.58
2018-06-25T00:06:27.412Z,95182.69
2018-06-25T00:08:54.052Z,95176.11
2018-06-25T00:11:20.667Z,95184.08
2018-06-25T00:13:47.313Z,95178.05
2018-06-25T00:16:13.955Z,95187.23
2018-06-25T00:18:40.593Z,95182.88
2018-06-25T00:21:07.237Z,95188.44
2018-06-25T00:23:33.930Z,95193.75
2018-06-25T00:26:00.514Z,95187.05
2018-06-25T00:28:27.155Z,95184.27
2018-06-25T00:30:53.796Z,95186.42
2018-06-25T00:33:20.441Z,95183.14
2018-06-25T00:35:47.076Z,95189.49
2018-06-25T00:38:13.771Z,95196.81
2018-06-25T00:40:40.372Z,95186.45
2018-06-25T00:43:07.004Z,95188.00
2018-06-25T00:45:33.670Z,95192.05
2018-06-25T00:48:00.315Z,95189.53
2018-06-25T00:50:26.953Z,95187.47
2018-06-25T00:52:53.597Z,95191.20
2018-06-25T00:55:20.233Z,95190.80
2018-06-25T00:57:46.870Z,95189.34
2018-06-25T01:00:13.527Z,95189.34
2018-06-25T01:02:40.166Z,95188.46
2018-06-25T01:05:06.814Z,95184.80
2018-06-25T01:07:33.453Z,95180.38
2018-06-25T01:10:00.097Z,95178.87
2018-06-25T01:12:26.745Z,95180.38
2018-06-25T01:14:53.426Z,95177.48
2018-06-25T01:17:20.065Z,95175.61
2018-06-25T01:19:46.712Z,95170.34
2018-06-25T01:22:13.373Z,95161.00
2018-06-25T01:24:39.978Z,95158.60
2018-06-25T01:27:06.615Z,95158.98
2018-06-25T01:29:33.254Z,95163.52
2018-06-25T01:31:59.887Z,95172.88
2018-06-25T01:34:26.607Z,95174.92
2018-06-25T01:36:53.240Z,95169.63
2018-06-25T01:39:19.942Z,95173.25
2018-06-25T01:41:46.564Z,95177.95
2018-06-25T01:44:13.187Z,95174.97
2018-06-25T01:46:39.877Z,95173.06
2018-06-25T01:49:06.528Z,95171.05
2018-06-25T01:51:33.203Z,95169.53
2018-06-25T01:53:59.805Z,95162.97
2018-06-25T01:56:26.463Z,95162.63
2018-06-25T01:58:53.137Z,95172.06
2018-06-25T02:01:19.746Z,95165.12
2018-06-25T02:03:46.382Z,95174.59
2018-06-25T02:06:13.017Z,95171.59
2018-06-25T02:08:39.661Z,95174.75
2018-06-25T02:11:06.294Z,95171.34
2018-06-25T02:13:32.944Z,95171.72
2018-06-25T02:15:59.633Z,95174.28
2018-06-25T02:18:26.266Z,95172.03
2018-06-25T02:20:52.950Z,95170.23
2018-06-25T02:23:19.586Z,95175.03
2018-06-25T02:25:46.221Z,95179.87
2018-06-25T02:28:12.869Z,95173.30
2018-06-25T02:30:39.527Z,95176.23
2018-06-25T02:33:06.211Z,95180.66
2018-06-25T02:35:32.839Z,95189.99
2018-06-25T02:37:59.476Z,95180.53
2018-06-25T02:40:26.132Z,95183.08
2018-06-25T02:42:52.799Z,95181.31
2018-06-25T02:45:19.485Z,95185.86
2018-06-25T02:47:46.188Z,95191.29
2018-06-25T02:50:12.861Z,95188.80
2018-06-25T02:52:39.541Z,95190.02
2018-06-25T02:55:06.138Z,95191.54
2018-06-25T02:57:32.826Z,95197.50
2018-06-25T02:59:59.470Z,95200.30
2018-06-25T03:02:26.225Z,95199.14
2018-06-25T03:04:52.877Z,95204.97
2018-06-25T03:07:19.508Z,95197.91
2018-06-25T03:09:46.150Z,95201.19
2018-06-25T03:12:12.787Z,95197.53
2018-06-25T03:14:39.441Z,95197.74
2018-06-25T03:17:06.177Z,95198.00
2018-06-25T03:19:32.785Z,95198.93
2018-06-25T03:21:59.466Z,95198.61
2018-06-25T03:24:26.140Z,95208.47
2018-06-25T03:26:52.796Z,95206.98
2018-06-25T03:29:19.439Z,95208.57
2018-06-25T03:31:46.128Z,95203.80
2018-06-25T03:34:12.766Z,95209.68
2018-06-25T03:36:39.449Z,95217.81
2018-06-25T03:39:06.089Z,95214.36
2018-06-25T03:41:32.902Z,95214.84
2018-06-25T03:43:59.563Z,95211.97
2018-06-25T03:46:26.210Z,95205.18
2018-06-25T03:48:52.861Z,95208.34
2018-06-25T03:51:19.501Z,95205.22
2018-06-25T03:53:46.186Z,95205.11
2018-06-25T03:56:12.828Z,95191.73
2018-06-25T03:58:39.472Z,95203.75
2018-06-25T04:01:06.163Z,95211.80
2018-06-25T04:03:32.789Z,95208.75
2018-06-25T04:05:59.450Z,95216.67
2018-06-25T04:08:26.124Z,95217.80
2018-06-25T04:10:52.775Z,95220.08
2018-06-25T04:13:19.460Z,95220.05
2018-06-25T04:15:46.101Z,95216.89
2018-06-25T04:18:12.743Z,95216.14
2018-06-25T04:20:39.450Z,95219.18
2018-06-25T04:23:06.042Z,95227.07
2018-06-25T04:25:32.684Z,95231.13
2018-06-25T04:27:59.327Z,95226.00
2018-06-25T04:30:26.067Z,95224.11
2018-06-25T04:32:52.686Z,95223.68
2018-06-25T04:35:19.357Z,95230.56
2018-06-25T04:37:46.027Z,95227.77
2018-06-25T04:40:12.733Z,95224.64
2018-06-25T04:42:39.346Z,95227.52
2018-06-25T04:45:05.994Z,95228.62
2018-06-25T04:47:32.643Z,95226.19
2018-06-25T04:49:59.288Z,95225.34
2018-06-25T04:52:25.960Z,95225.84
2018-06-25T04:54:52.611Z,95221.42
2018-06-25T04:57:19.248Z,95227.48
2018-06-25T04:59:45.966Z,95227.83
2018-06-25T05:02:12.584Z,95224.84
2018-06-25T05:04:39.251Z,95231.59
2018-06-25T05:07:05.865Z,95227.05
2018-06-25T05:09:32.500Z,95227.52
2018-06-25T05:11:59.221Z,95229.09
2018-06-25T05:14:25.897Z,95222.72
2018-06-25T05:16:52.532Z,95227.36
2018-06-25T05:19:19.211Z,95227.23
2018-06-25T05:21:45.851Z,95234.05
2018-06-25T05:24:12.493Z,95228.75
2018-06-25T05:26:39.207Z,95236.64
2018-06-25T05:29:05.865Z,95231.23
2018-06-25T05:31:32.452Z,95229.51
2018-06-25T05:33:59.171Z,95223.45
2018-06-25T05:36:25.782Z,95214.61
2018-06-25T05:38:52.473Z,95218.02
2018-06-25T05:41:19.113Z,95223.83
2018-06-25T05:43:45.848Z,95220.32
2018-06-25T05:46:12.469Z,95227.20
2018-06-25T05:48:39.159Z,95227.23
2018-06-25T05:51:05.797Z,95230.36
2018-06-25T05:53:32.468Z,95232.84
2018-06-25T05:55:59.109Z,95235.84
2018-06-25T05:58:25.811Z,95237.10
2018-06-25T06:00:52.490Z,95233.50
2018-06-25T06:03:19.157Z,95239.31
2018-06-25T06:05:45.756Z,95240.54
2018-06-25T06:08:12.399Z,95237.16
2018-06-25T06:10:39.056Z,95230.18
2018-06-25T06:13:05.772Z,95226.05
2018-06-25T06:15:32.653Z,95227.31
2018-06-25T06:17:59.727Z,95232.95
2018-06-25T06:20:26.396Z,95239.02
2018-06-25T06:22:53.040Z,95248.37
2018-06-25T06:25:19.718Z,95251.37
2018-06-25T06:27:46.374Z,95246.56
2018-06-25T06:30:13.037Z,95239.42
2018-06-25T06:32:39.678Z,95241.31
2018-06-25T06:35:06.322Z,95242.23
2018-06-25T06:37:33.022Z,95238.72
2018-06-25T06:39:59.695Z,95229.22
2018-06-25T06:42:26.310Z,95240.81
2018-06-25T06:44:52.977Z,95243.43
2018-06-25T06:47:22.423Z,95240.41
2018-06-25T06:49:49.103Z,95239.66
2018-06-25T06:52:15.741Z,95242.01
2018-06-25T06:54:42.399Z,95237.80
2018-06-25T06:57:09.042Z,95233.78
2018-06-25T06:59:35.795Z,95234.59
2018-06-25T07:02:02.542Z,95231.59
2018-06-25T07:04:29.192Z,95233.00
2018-06-25T07:06:55.881Z,95223.05
2018-06-25T07:09:22.527Z,95220.01
2018-06-25T07:11:49.187Z,95224.05
2018-06-25T07:14:15.912Z,95228.86
2018-06-25T07:16:42.621Z,95206.52
2018-06-25T07:19:09.218Z,95221.42
2018-06-25T07:21:35.906Z,95211.87
2018-06-25T07:24:02.605Z,95216.06
2018-06-25T07:26:29.328Z,95215.09
2018-06-25T07:28:55.974Z,95216.33
2018-06-25T07:31:22.646Z,95216.61
2018-06-25T07:33:49.285Z,95209.30
2018-06-25T07:36:15.931Z,95208.79
2018-06-25T07:38:42.623Z,95203.75
2018-06-25T07:41:09.278Z,95213.92
2018-06-25T07:43:35.944Z,95212.25
2018-06-25T07:46:02.602Z,95204.53
2018-06-25T07:48:29.311Z,95211.57
2018-06-25T07:50:55.947Z,95211.10
2018-06-25T07:53:22.654Z,95216.17
2018-06-25T07:55:49.357Z,95213.44
2018-06-25T07:58:16.013Z,95206.95
2018-06-25T08:00:42.646Z,95217.26
2018-06-25T08:03:12.210Z,95210.25
2018-06-25T08:05:38.899Z,95214.50
2018-06-25T08:08:05.539Z,95199.94
2018-06-25T08:10:32.209Z,95212.87
2018-06-25T08:12:58.885Z,95211.73
2018-06-25T08:15:25.532Z,95219.09
2018-06-25T08:17:52.175Z,95212.91
2018-06-25T08:20:18.892Z,95207.39
2018-06-25T08:22:45.543Z,95214.93
2018-06-25T08:25:12.198Z,95219.76
2018-06-25T08:27:38.933Z,95216.02
2018-06-25T08:30:05.637Z,95204.05
2018-06-25T08:32:32.352Z,95204.83
2018-06-25T08:34:58.989Z,95201.28
2018-06-25T08:37:25.674Z,95200.83
2018-06-25T08:39:52.341Z,95203.61
2018-06-25T08:42:18.947Z,95200.31
2018-06-25T08:44:45.630Z,95201.33
2018-06-25T08:47:12.233Z,95188.55
2018-06-25T08:49:38.882Z,95186.63
2018-06-25T08:52:05.523Z,95184.48
2018-06-25T08:54:32.170Z,95178.91
2018-06-25T08:57:01.585Z,95179.44
2018-06-25T08:59:28.144Z,95186.00
2018-06-25T09:01:54.781Z,95186.41
2018-06-25T09:04:21.450Z,95181.64
2018-06-25T09:06:48.115Z,95183.58
2018-06-25T09:09:14.742Z,95177.14
2018-06-25T09:11:41.378Z,95175.58
2018-06-25T09:14:08.027Z,95175.00
2018-06-25T09:16:34.672Z,95171.16
2018-06-25T09:19:01.323Z,95178.30
2018-06-25T09:21:27.979Z,95182.23
2018-06-25T09:23:54.609Z,95177.12
2018-06-25T09:26:21.269Z,95174.17
2018-06-25T09:28:47.944Z,95173.52
2018-06-25T09:31:14.580Z,95171.30
2018-06-25T09:33:41.243Z,95179.96
2018-06-25T09:36:08.052Z,95179.88
2018-06-25T09:38:34.692Z,95173.48
2018-06-25T09:41:01.425Z,95172.62
2018-06-25T09:43:28.010Z,95170.64
2018-06-25T09:45:54.751Z,95174.70
2018-06-25T09:48:21.381Z,95180.98
2018-06-25T09:50:48.017Z,95178.30
2018-06-25T09:53:14.721Z,95180.28
2018-06-25T09:55:41.394Z,95171.22
2018-06-25T09:58:08.041Z,95174.45
2018-06-25T10:00:34.760Z,95173.11
2018-06-25T10:03:01.411Z,95171.89
2018-06-25T10:05:28.049Z,95161.15
2018-06-25T10:07:54.694Z,95163.16
2018-06-25T10:10:21.328Z,95163.61
2018-06-25T10:12:47.971Z,95151.13
2018-06-25T10:15:14.606Z,95150.17
2018-06-25T10:17:41.260Z,95147.88
2018-06-25T10:20:07.912Z,95147.81
2018-06-25T10:22:34.569Z,95150.34
2018-06-25T10:25:01.249Z,95149.58
2018-06-25T10:27:27.944Z,95149.90
2018-06-25T10:29:54.582Z,95141.09
2018-06-25T10:32:21.210Z,95141.06
2018-06-25T10:34:47.929Z,95130.75
2018-06-25T10:37:14.566Z,95141.70
2018-06-25T10:39:41.285Z,95137.20
2018-06-25T10:42:07.969Z,95132.96
2018-06-25T10:44:34.574Z,95135.16
2018-06-25T10:47:01.219Z,95133.27
2018-06-25T10:49:27.930Z,95126.72
2018-06-25T10:51:54.562Z,95123.37
2018-06-25T10:54:21.217Z,95121.57
2018-06-25T10:56:47.861Z,95113.29
2018-06-25T10:59:14.554Z,95111.30
2018-06-25T11:01:41.201Z,95119.36
2018-06-25T11:04:07.839Z,95113.62
2018-06-25T11:06:34.481Z,95114.59
2018-06-25T11:09:01.108Z,95120.88
2018-06-25T11:11:27.753Z,95107.20
2018-06-25T11:13:54.386Z,95107.53
2018-06-25T11:16:21.033Z,95111.71
2018-06-25T11:18:47.724Z,95100.63
2018-06-25T11:21:14.377Z,95083.06
2018-06-25T11:23:41.935Z,95107.39
2018-06-25T11:26:08.610Z,95107.31
2018-06-25T11:28:35.265Z,95106.28
2018-06-25T11:31:01.950Z,95096.14
2018-06-25T11:33:29.616Z,95092.84
2018-06-25T11:35:56.268Z,95098.24
2018-06-25T11:38:22.958Z,95096.20
2018-06-25T11:40:49.594Z,95094.22
2018-06-25T11:43:16.252Z,95097.02
2018-06-25T11:45:42.896Z,95089.34
2018-06-25T11:48:09.582Z,95095.55
2018-06-25T11:50:36.228Z,95084.41
2018-06-25T11:53:02.879Z,95080.38
2018-06-25T11:55:29.913Z,95076.17
2018-06-25T11:57:56.525Z,95076.02
2018-06-25T12:00:23.191Z,95075.17
2018-06-25T12:02:49.905Z,95072.78
2018-06-25T12:05:16.474Z,95074.52
2018-06-25T12:07:43.133Z,95074.75
2018-06-25T12:10:09.773Z,95074.34
2018-06-25T12:12:36.461Z,95075.16
2018-06-25T12:15:03.158Z,95066.21
2018-06-25T12:17:29.870Z,95080.08
2018-06-25T12:19:56.711Z,95070.65
2018-06-25T12:22:23.231Z,95061.80
2018-06-25T12:24:49.886Z,95071.67
2018-06-25T12:27:16.487Z,95064.23
2018-06-25T12:29:43.180Z,95076.84
2018-06-25T12:32:09.836Z,95070.77
2018-06-25T12:34:36.530Z,95077.80
2018-06-25T12:37:03.166Z,95076.09
2018-06-25T12:39:29.811Z,95072.78
2018-06-25T12:41:56.544Z,95075.80
2018-06-25T12:44:23.205Z,95071.61
2018-06-25T12:46:49.818Z,95073.75
2018-06-25T12:49:16.473Z,95076.70
2018-06-25T12:51:43.159Z,95079.48
2018-06-25T12:54:09.759Z,95081.95
2018-06-25T12:56:36.405Z,95079.97
2018-06-25T12:59:03.081Z,95075.91
2018-06-25T13:01:29.757Z,95078.25
2018-06-25T13:03:56.377Z,95078.03
2018-06-25T13:06:22.984Z,95076.90
2018-06-25T13:08:51.278Z,95079.76
2018-06-25T13:11:16.277Z,95084.06
2018-06-25T13:13:42.914Z,95086.29
2018-06-25T13:16:09.549Z,95083.01
2018-06-25T13:18:36.226Z,95070.09
2018-06-25T13:21:02.895Z,95067.17
2018-06-25T13:23:29.520Z,95070.77
2018-06-25T13:25:56.308Z,95065.37
2018-06-25T13:28:22.851Z,95067.94
2018-06-25T13:30:49.572Z,95064.10
2018-06-25T13:33:16.151Z,95051.70
2018-06-25T13:35:42.792Z,95051.05
2018-06-25T13:38:09.567Z,95047.39
2018-06-25T13:40:36.174Z,95042.13
2018-06-25T13:43:02.854Z,95042.60
2018-06-25T13:45:29.557Z,95051.17
2018-06-25T13:47:56.224Z,95048.19
2018-06-25T13:50:22.930Z,95038.28
2018-06-25T13:52:49.751Z,95040.54
2018-06-25T13:55:16.401Z,95041.83
2018-06-25T13:57:43.043Z,95046.69
2018-06-25T14:00:09.726Z,95047.11
2018-06-25T14:02:36.369Z,95038.36
2018-06-25T14:05:03.010Z,95037.86
2018-06-25T14:07:29.739Z,95030.05
2018-06-25T14:09:56.421Z,95027.16
2018-06-25T14:12:23.046Z,95028.20
2018-06-25T14:14:49.727Z,95030.80
2018-06-25T14:17:16.374Z,95033.11
2018-06-25T14:19:43.035Z,95036.77
2018-06-25T14:22:09.722Z,95037.20
2018-06-25T14:24:36.368Z,95031.17
2018-06-25T14:27:03.019Z,95037.41
2018-06-25T14:29:29.701Z,95031.83
2018-06-25T14:31:56.340Z,95031.19
2018-06-25T14:34:23.021Z,95036.77
2018-06-25T14:36:49.661Z,95027.27
2018-06-25T14:39:16.335Z,95032.66
2018-06-25T14:41:42.989Z,95026.81
2018-06-25T14:44:09.703Z,95025.79
2018-06-25T14:46:36.446Z,95030.28
2018-06-25T14:49:03.126Z,95035.56
2018-06-25T14:51:29.800Z,95030.92
2018-06-25T14:53:56.437Z,95038.05
2018-06-25T14:56:23.147Z,95043.19
2018-06-25T14:58:49.874Z,95034.39
2018-06-25T15:01:16.564Z,95033.41
2018-06-25T15:03:43.202Z,95031.91
2018-06-25T15:06:09.894Z,95032.58
2018-06-25T15:08:36.527Z,95029.30
2018-06-25T15:11:03.294Z,95033.19
2018-06-25T15:13:29.946Z,95025.75
2018-06-25T15:15:56.583Z,95032.66
2018-06-25T15:18:23.221Z,95032.88
2018-06-25T15:20:49.872Z,95023.64
2018-06-25T15:23:16.505Z,95027.16
2018-06-25T15:25:46.133Z,95024.65
2018-06-25T15:28:12.848Z,95024.13
2018-06-25T15:30:39.501Z,95023.83
2018-06-25T15:33:06.194Z,95020.80
2018-06-25T15:35:32.895Z,95027.72
2018-06-25T15:37:59.601Z,95024.51
2018-06-25T15:40:26.358Z,95021.08
2018-06-25T15:42:53.078Z,95021.48
2018-06-25T15:45:19.816Z,95024.20
2018-06-25T15:47:46.463Z,95029.60
2018-06-25T15:50:13.141Z,95029.19
2018-06-25T15:52:39.824Z,95031.41
2018-06-25T15:55:06.468Z,95034.99
2018-06-25T15:57:33.107Z,95030.66
2018-06-25T15:59:59.804Z,95029.53
2018-06-25T16:02:26.404Z,95036.01
2018-06-25T16:04:53.082Z,95036.09
2018-06-25T16:07:19.726Z,95038.27
2018-06-25T16:09:46.417Z,95043.40
2018-06-25T16:12:13.105Z,95044.19
2018-06-25T16:14:39.752Z,95039.39
2018-06-25T16:17:09.285Z,95047.89
2018-06-25T16:19:35.965Z,95045.02
2018-06-25T16:22:02.609Z,95040.91
2018-06-25T16:24:29.327Z,95040.00
2018-06-25T16:26:56.000Z,95043.70
2018-06-25T16:29:22.682Z,95050.33
2018-06-25T16:31:49.324Z,95042.80
2018-06-25T16:34:16.015Z,95042.98
2018-06-25T16:36:42.653Z,95039.92
2018-06-25T16:39:09.291Z,95038.71
2018-06-25T16:41:35.981Z,95040.56
2018-06-25T16:44:02.666Z,95040.94
2018-06-25T16:46:29.345Z,95049.01
2018-06-25T16:48:55.950Z,95047.55
2018-06-25T16:51:22.646Z,95044.98
2018-06-25T16:53:49.283Z,95045.73
2018-06-25T16:56:15.990Z,95041.32
2018-06-25T16:58:42.666Z,95040.97
2018-06-25T17:01:09.299Z,95039.42
2018-06-25T17:03:35.978Z,95039.87
2018-06-25T17:06:02.652Z,95043.61
2018-06-25T17:08:29.255Z,95033.92
2018-06-25T17:10:55.904Z,95035.12
2018-06-25T17:13:22.542Z,95030.08
2018-06-25T17:15:49.196Z,95032.56
2018-06-25T17:18:15.830Z,95039.22
2018-06-25T17:20:42.468Z,95041.28
2018-06-25T17:23:09.195Z,95033.31
2018-06-25T17:25:35.832Z,95038.87
2018-06-25T17:28:02.492Z,95047.83
2018-06-25T17:30:29.129Z,95046.55
2018-06-25T17:32:55.764Z,95053.03
2018-06-25T17:35:22.407Z,95049.55
2018-06-25T17:37:49.038Z,95048.87
2018-06-25T17:40:15.673Z,95053.75
2018-06-25T17:42:42.365Z,95050.91
2018-06-25T17:45:09.037Z,95054.63
2018-06-25T17:47:35.639Z,95051.98
2018-06-25T17:50:02.290Z,95054.39
2018-06-25T17:52:28.930Z,95058.75
2018-06-25T17:54:55.577Z,95051.82
2018-06-25T17:57:22.222Z,95055.16
2018-06-25T17:59:48.871Z,95057.78
2018-06-25T18:02:15.547Z,95056.33
2018-06-25T18:04:42.156Z,95065.52
2018-06-25T18:07:08.790Z,95068.83
2018-06-25T18:09:35.432Z,95070.89
2018-06-25T18:12:02.145Z,95065.62
2018-06-25T18:14:28.787Z,95068.10
2018-06-25T18:16:55.431Z,95070.46
2018-06-25T18:19:22.077Z,95072.69
2018-06-25T18:21:48.714Z,95075.66
2018-06-25T18:24:15.350Z,95084.72
2018-06-25T18:26:42.001Z,95094.16
2018-06-25T18:29:08.638Z,95091.69
2018-06-25T18:31:35.316Z,95093.89
2018-06-25T18:34:01.916Z,95097.53
2018-06-25T18:36:28.561Z,95100.05
2018-06-25T18:38:55.214Z,95107.67
2018-06-25T18:41:21.850Z,95107.11
2018-06-25T18:43:48.489Z,95103.46
2018-06-25T18:46:15.133Z,95108.74
2018-06-25T18:48:41.769Z,95108.22
2018-06-25T18:51:08.415Z,95113.63
2018-06-25T18:53:36.368Z,95123.34
2018-06-25T18:56:01.683Z,95121.89
2018-06-25T18:58:28.313Z,95124.39
2018-06-25T19:00:55.029Z,95130.26
2018-06-25T19:03:21.669Z,95128.38
2018-06-25T19:05:48.316Z,95132.03
2018-06-25T19:08:14.958Z,95135.39
2018-06-25T19:10:41.605Z,95132.38
2018-06-25T19:13:08.240Z,95140.15
2018-06-25T19:15:34.873Z,95134.84
2018-06-25T19:18:01.530Z,95132.69
2018-06-25T19:20:28.161Z,95136.49
2018-06-25T19:22:54.837Z,95137.69
2018-06-25T19:25:21.444Z,95138.49
2018-06-25T19:27:48.085Z,95137.69
2018-06-25T19:30:14.723Z,95140.98
2018-06-25T19:32:41.368Z,95143.36
2018-06-25T19:35:08.004Z,95146.03
2018-06-25T19:37:34.684Z,95140.72
2018-06-25T19:40:01.337Z,95134.62
2018-06-25T19:42:27.977Z,95133.12
2018-06-25T19:44:54.618Z,95137.19
2018-06-25T19:47:21.263Z,95137.35
2018-06-25T19:49:47.926Z,95131.55
2018-06-25T19:52:14.571Z,95130.27
2018-06-25T19:54:41.211Z,95131.41
2018-06-25T19:57:07.856Z,95131.66
2018-06-25T19:59:34.531Z,95129.83
2018-06-25T20:02:01.152Z,95131.17
2018-06-25T20:04:27.793Z,95127.69
2018-06-25T20:06:54.430Z,95127.36
2018-06-25T20:09:21.068Z,95129.66
2018-06-25T20:11:47.706Z,95126.34
2018-06-25T20:14:14.378Z,95128.31
2018-06-25T20:16:41.007Z,95127.36
2018-06-25T20:19:07.640Z,95124.02
2018-06-25T20:21:34.281Z,95126.80
2018-06-25T20:24:00.926Z,95125.06
2018-06-25T20:26:27.565Z,95128.48
2018-06-25T20:28:54.214Z,95129.83
2018-06-25T20:31:20.864Z,95122.85
2018-06-25T20:33:47.489Z,95128.05
2018-06-25T20:36:14.213Z,95129.17
2018-06-25T20:38:40.795Z,95126.77
2018-06-25T20:41:07.448Z,95129.17
2018-06-25T20:43:34.070Z,95121.55
2018-06-25T20:46:00.759Z,95128.73
2018-06-25T20:48:27.367Z,95126.20
2018-06-25T20:50:54.004Z,95129.38
2018-06-25T20:53:20.714Z,95128.50
2018-06-25T20:55:47.419Z,95132.84
2018-06-25T20:58:14.029Z,95125.77
2018-06-25T21:00:40.671Z,95127.21
2018-06-25T21:03:07.313Z,95121.85
2018-06-25T21:05:33.962Z,95126.08
2018-06-25T21:08:00.600Z,95125.27
2018-06-25T21:10:27.264Z,95122.07
2018-06-25T21:12:53.863Z,95124.55
2018-06-25T21:15:20.514Z,95125.44
2018-06-25T21:17:47.147Z,95123.61
2018-06-25T21:20:13.801Z,95113.91
2018-06-25T21:22:40.434Z,95117.59
2018-06-25T21:25:07.072Z,95118.47
2018-06-25T21:27:33.709Z,95118.47
2018-06-25T21:30:00.390Z,95117.77
2018-06-25T21:32:27.044Z,95119.16
2018-06-25T21:34:53.683Z,95119.91
2018-06-25T21:37:20.325Z,95121.39
2018-06-25T21:39:46.957Z,95113.21
2018-06-25T21:42:13.598Z,95113.96
2018-06-25T21:44:40.237Z,95111.33
2018-06-25T21:47:06.887Z,95112.45
2018-06-25T21:49:33.557Z,95115.00
2018-06-25T21:52:00.175Z,95113.63
2018-06-25T21:54:26.815Z,95111.98
2018-06-25T21:56:53.475Z,95113.92
2018-06-25T21:59:20.122Z,95117.60
2018-06-25T22:01:46.797Z,95118.56
2018-06-25T22:04:13.411Z,95112.23
2018-06-25T22:06:40.044Z,95118.45
2018-06-25T22:09:06.716Z,95116.33
2018-06-25T22:11:33.332Z,95117.11
2018-06-25T22:13:59.962Z,95111.80
2018-06-25T22:16:26.662Z,95113.73
2018-06-25T22:18:53.261Z,95115.71
2018-06-25T22:21:19.909Z,95121.50
2018-06-25T22:23:46.539Z,95117.53
2018-06-25T22:26:13.195Z,95118.17
2018-06-25T22:28:39.829Z,95120.37
2018-06-25T22:31:06.516Z,95120.81
2018-06-25T22:33:33.152Z,95121.91
2018-06-25T22:35:59.789Z,95121.43
2018-06-25T22:38:26.431Z,95127.96
2018-06-25T22:40:53.070Z,95121.13
2018-06-25T22:43:19.726Z,95125.55
2018-06-25T22:45:46.402Z,95121.90
2018-06-25T22:48:13.042Z,95126.00
2018-06-25T22:50:39.685Z,95122.96
2018-06-25T22:53:06.363Z,95127.30
2018-06-25T22:55:33.036Z,95120.06
2018-06-25T22:57:59.644Z,95125.75
2018-06-25T23:00:26.367Z,95129.55
2018-06-25T23:02:52.962Z,95126.55
2018-06-25T23:05:19.698Z,95121.98
2018-06-25T23:07:46.350Z,95122.68
2018-06-25T23:10:12.985Z,95120.27
2018-06-25T23:12:39.793Z,95121.73
2018-06-25T23:15:06.442Z,95112.33
2018-06-25T23:17:33.081Z,95109.92
2018-06-25T23:19:59.720Z,95107.19
2018-06-25T23:22:26.415Z,95102.63
2018-06-25T23:24:53.066Z,95099.22
2018-06-25T23:27:19.766Z,95098.25
2018-06-25T23:29:46.424Z,95097.70
2018-06-25T23:32:13.059Z,95100.34
2018-06-25T23:34:39.744Z,95102.52
2018-06-25T23:37:06.378Z,95103.18
2018-06-25T23:39:33.012Z,95103.18
2018-06-25T23:41:59.658Z,95109.26
2018-06-25T23:44:26.420Z,95111.23
2018-06-25T23:46:53.032Z,95112.98
2018-06-25T23:49:19.673Z,95117.53
2018-06-25T23:51:46.339Z,95110.46
2018-06-25T23:54:12.948Z,95107.05
2018-06-25T23:56:39.597Z,95106.20
2018-06-25T23:59:06.245Z,95103.25
